Edzard Schulte — 2CVX9 — position and weather

sailwx.info

Track history (hours):
 
Tides and Currents Weather Stations Pressure Air Temp Water Temp Dewpoint Dewpoint Depression Visibility Wind Speed Wind Dir Waves Ship Positions

Edzard Schulte

Last reported at 2016-Dec-04 04:24 UTC. Time now 2016-Dec-04 06:08 UTC.
Position N 52°09' E 003°34'.

Length 145 m; draft 6 m.

Type: Tanker. MMSI: 235076245.

Date/timePositionNaut miles runAvg speedWind from/ knotsBaromVisibWave heightAir tempDewpointWater temp
2016-Dec-04 04:24N 52°09' E 003°34'0 0.1
2016-Dec-04 03:11N 52°09' E 003°34'  
2016-Dec-01 07:16N 51°55' E 002°48'811.2
2016-Dec-01 06:31N 51°51' E 002°59'1111.2
2016-Dec-01 05:32N 51°46' E 003°15'9 8.9
2016-Dec-01 04:33N 51°38' E 003°21'1312.6
2016-Dec-01 03:33N 51°27' E 003°32'8 8.5
2016-Dec-01 02:33N 51°23' E 003°44'8 8.3
2016-Dec-01 01:33N 51°24' E 003°57'6 5.5
2016-Dec-01 00:33N 51°22' E 004°06'6 5.9
2016-Nov-30 23:33N 51°21' E 004°15'1 1.4
2016-Nov-30 22:33N 51°21' E 004°17'5 4.7
2016-Nov-30 21:33N 51°16' E 004°20'1 1.2
2016-Nov-30 20:28N 51°16' E 004°22'0 0.0
2016-Nov-30 19:31N 51°16' E 004°22'0 0.0
2016-Nov-30 18:28N 51°16' E 004°22'0 0.0
2016-Nov-30 17:22N 51°16' E 004°22'0 0.0
2016-Nov-30 16:28N 51°16' E 004°22'0 0.0
2016-Nov-30 15:31N 51°16' E 004°22'0 0.0
2016-Nov-30 14:31N 51°16' E 004°22'0 0.0
2016-Nov-30 13:31N 51°16' E 004°22'0 0.0
2016-Nov-30 12:31N 51°16' E 004°22'0 0.0
2016-Nov-30 11:31N 51°16' E 004°22'0 0.0
2016-Nov-30 10:31N 51°16' E 004°22'0 0.0
2016-Nov-30 09:31N 51°16' E 004°22'0 0.0
2016-Nov-30 08:28N 51°16' E 004°22'0 0.0
2016-Nov-30 07:28N 51°16' E 004°22'0 0.0
2016-Nov-30 06:31N 51°16' E 004°22'0 0.0
2016-Nov-30 05:31N 51°16' E 004°22'0 0.0
2016-Nov-30 04:31N 51°16' E 004°22'0 0.0
2016-Nov-30 03:31N 51°16' E 004°22'0 0.0
2016-Nov-30 02:28N 51°16' E 004°22'0 0.0
2016-Nov-30 01:22N 51°16' E 004°22'0 0.0
2016-Nov-30 00:28N 51°16' E 004°22'0 0.0
2016-Nov-29 23:28N 51°16' E 004°22'0 0.0
2016-Nov-29 22:31N 51°16' E 004°22'0 0.0
2016-Nov-29 21:31N 51°16' E 004°22'0 0.0
2016-Nov-29 20:31N 51°16' E 004°22'0 0.0
2016-Nov-29 19:31N 51°16' E 004°22'0 0.0
2016-Nov-29 18:34N 51°16' E 004°22'2 1.7
2016-Nov-29 17:34N 51°17' E 004°20'0 0.4
2016-Nov-29 16:34N 51°17' E 004°19'2 2.1
2016-Nov-29 15:34N 51°16' E 004°17'2 0.1
2016-Nov-28 05:10N 51°17' E 004°14'0 0.0
2016-Nov-28 04:33N 51°17' E 004°14'2 2.2
2016-Nov-28 03:34N 51°16' E 004°17'1 1.4
2016-Nov-28 02:33N 51°16' E 004°19'8 7.9
2016-Nov-28 01:31N 51°24' E 004°12'8 7.8
2016-Nov-28 00:33N 51°26' E 004°01'10 9.8
2016-Nov-27 23:33N 51°21' E 003°47'9 9.3
2016-Nov-27 22:33N 51°26' E 003°35'1010.1
2016-Nov-27 21:33N 51°34' E 003°24'1111.3
2016-Nov-27 20:33N 51°44' E 003°15'4 3.8
2016-Nov-27 19:32N 51°48' E 003°14'40311.5
2016-Nov-26 08:32N 57°35' E 009°07'40 9.5
2016-Nov-26 04:18N 57°47' E 010°19'7 9.5
2016-Nov-26 03:33N 57°48' E 010°32'8 8.4
2016-Nov-26 02:33N 57°47' E 010°48'1110.5
2016-Nov-26 01:33N 57°39' E 011°02'1110.6
2016-Nov-26 00:33N 57°33' E 011°18'1211.6
2016-Nov-25 23:33N 57°23' E 011°29'1212.2
2016-Nov-25 22:33N 57°12' E 011°37'1212.3
2016-Nov-25 21:33N 57°00' E 011°46'2110.4
2016-Nov-25 19:31N 56°39' E 011°40'1313.3
2016-Nov-25 18:33N 56°31' E 011°23'1312.5
2016-Nov-25 17:30N 56°22' E 011°07'1411.6
2016-Nov-25 16:19N 56°08' E 011°05'3912.6
2016-Nov-25 13:15N 55°30' E 010°54'1412.6
2016-Nov-25 12:10N 55°18' E 011°03'711.8
2016-Nov-25 11:34N 55°10' E 011°04'1312.6
2016-Nov-25 10:33N 54°58' E 010°59'1312.8
2016-Nov-25 09:33N 54°46' E 010°53'10 9.9
2016-Nov-25 08:33N 54°38' E 011°04'1211.7
2016-Nov-25 07:33N 54°33' E 011°22'1313.2
2016-Nov-25 06:33N 54°27' E 011°42'1312.6
2016-Nov-25 05:32N 54°27' E 012°05'1211.9
2016-Nov-25 04:33N 54°36' E 012°16'1412.9
2016-Nov-25 03:31N 54°44' E 012°35'4413.1
2016-Nov-25 00:07N 55°01' E 013°46'713.0
2016-Nov-24 23:33N 55°04' E 013°58'1312.7
2016-Nov-24 22:33N 55°13' E 014°13'1313.2
2016-Nov-24 21:33N 55°22' E 014°29'1312.8
2016-Nov-24 20:33N 55°30' E 014°47'1312.7
2016-Nov-24 19:33N 55°35' E 015°08'1312.4
2016-Nov-24 18:31N 55°39' E 015°30'  
Track history (hours):
 
Tides and Currents Weather Stations Pressure Air Temp Water Temp Dewpoint Dewpoint Depression Visibility Wind Speed Wind Dir Waves Ship Positions

Edzard Schulte

Last reported at 2016-Dec-04 04:24 UTC. Time now 2016-Dec-04 06:08 UTC.
Position N 52°09' E 003°34'.

Length 145 m; draft 6 m.

Type: Tanker. MMSI: 235076245.

Date/timePositionNaut miles runAvg speedWind from/ knotsBaromVisibWave heightAir tempDewpointWater temp
2016-Dec-04 04:24N 52°09' E 003°34'0 0.1
2016-Dec-04 03:11N 52°09' E 003°34'  
2016-Dec-01 07:16N 51°55' E 002°48'811.2
2016-Dec-01 06:31N 51°51' E 002°59'1111.2
2016-Dec-01 05:32N 51°46' E 003°15'9 8.9
2016-Dec-01 04:33N 51°38' E 003°21'1312.6
2016-Dec-01 03:33N 51°27' E 003°32'8 8.5
2016-Dec-01 02:33N 51°23' E 003°44'8 8.3
2016-Dec-01 01:33N 51°24' E 003°57'6 5.5
2016-Dec-01 00:33N 51°22' E 004°06'6 5.9
2016-Nov-30 23:33N 51°21' E 004°15'1 1.4
2016-Nov-30 22:33N 51°21' E 004°17'5 4.7
2016-Nov-30 21:33N 51°16' E 004°20'1 1.2
2016-Nov-30 20:28N 51°16' E 004°22'0 0.0
2016-Nov-30 19:31N 51°16' E 004°22'0 0.0
2016-Nov-30 18:28N 51°16' E 004°22'0 0.0
2016-Nov-30 17:22N 51°16' E 004°22'0 0.0
2016-Nov-30 16:28N 51°16' E 004°22'0 0.0
2016-Nov-30 15:31N 51°16' E 004°22'0 0.0
2016-Nov-30 14:31N 51°16' E 004°22'0 0.0
2016-Nov-30 13:31N 51°16' E 004°22'0 0.0
2016-Nov-30 12:31N 51°16' E 004°22'0 0.0
2016-Nov-30 11:31N 51°16' E 004°22'0 0.0
2016-Nov-30 10:31N 51°16' E 004°22'0 0.0
2016-Nov-30 09:31N 51°16' E 004°22'0 0.0
2016-Nov-30 08:28N 51°16' E 004°22'0 0.0
2016-Nov-30 07:28N 51°16' E 004°22'0 0.0
2016-Nov-30 06:31N 51°16' E 004°22'0 0.0
2016-Nov-30 05:31N 51°16' E 004°22'0 0.0
2016-Nov-30 04:31N 51°16' E 004°22'0 0.0
2016-Nov-30 03:31N 51°16' E 004°22'0 0.0
2016-Nov-30 02:28N 51°16' E 004°22'0 0.0
2016-Nov-30 01:22N 51°16' E 004°22'0 0.0
2016-Nov-30 00:28N 51°16' E 004°22'0 0.0
2016-Nov-29 23:28N 51°16' E 004°22'0 0.0
2016-Nov-29 22:31N 51°16' E 004°22'0 0.0
2016-Nov-29 21:31N 51°16' E 004°22'0 0.0
2016-Nov-29 20:31N 51°16' E 004°22'0 0.0
2016-Nov-29 19:31N 51°16' E 004°22'0 0.0
2016-Nov-29 18:34N 51°16' E 004°22'2 1.7
2016-Nov-29 17:34N 51°17' E 004°20'0 0.4
2016-Nov-29 16:34N 51°17' E 004°19'2 2.1
2016-Nov-29 15:34N 51°16' E 004°17'2 0.1
2016-Nov-28 05:10N 51°17' E 004°14'0 0.0
2016-Nov-28 04:33N 51°17' E 004°14'2 2.2
2016-Nov-28 03:34N 51°16' E 004°17'1 1.4
2016-Nov-28 02:33N 51°16' E 004°19'8 7.9
2016-Nov-28 01:31N 51°24' E 004°12'8 7.8
2016-Nov-28 00:33N 51°26' E 004°01'10 9.8
2016-Nov-27 23:33N 51°21' E 003°47'9 9.3
2016-Nov-27 22:33N 51°26' E 003°35'1010.1
2016-Nov-27 21:33N 51°34' E 003°24'1111.3
2016-Nov-27 20:33N 51°44' E 003°15'4 3.8
2016-Nov-27 19:32N 51°48' E 003°14'40311.5
2016-Nov-26 08:32N 57°35' E 009°07'40 9.5
2016-Nov-26 04:18N 57°47' E 010°19'7 9.5
2016-Nov-26 03:33N 57°48' E 010°32'8 8.4
2016-Nov-26 02:33N 57°47' E 010°48'1110.5
2016-Nov-26 01:33N 57°39' E 011°02'1110.6
2016-Nov-26 00:33N 57°33' E 011°18'1211.6
2016-Nov-25 23:33N 57°23' E 011°29'1212.2
2016-Nov-25 22:33N 57°12' E 011°37'1212.3
2016-Nov-25 21:33N 57°00' E 011°46'2110.4
2016-Nov-25 19:31N 56°39' E 011°40'1313.3
2016-Nov-25 18:33N 56°31' E 011°23'1312.5
2016-Nov-25 17:30N 56°22' E 011°07'1411.6
2016-Nov-25 16:19N 56°08' E 011°05'3912.6
2016-Nov-25 13:15N 55°30' E 010°54'1412.6
2016-Nov-25 12:10N 55°18' E 011°03'711.8
2016-Nov-25 11:34N 55°10' E 011°04'1312.6
2016-Nov-25 10:33N 54°58' E 010°59'1312.8
2016-Nov-25 09:33N 54°46' E 010°53'10 9.9
2016-Nov-25 08:33N 54°38' E 011°04'1211.7
2016-Nov-25 07:33N 54°33' E 011°22'1313.2
2016-Nov-25 06:33N 54°27' E 011°42'1312.6
2016-Nov-25 05:32N 54°27' E 012°05'1211.9
2016-Nov-25 04:33N 54°36' E 012°16'1412.9
2016-Nov-25 03:31N 54°44' E 012°35'4413.1
2016-Nov-25 00:07N 55°01' E 013°46'713.0
2016-Nov-24 23:33N 55°04' E 013°58'1312.7
2016-Nov-24 22:33N 55°13' E 014°13'1313.2
2016-Nov-24 21:33N 55°22' E 014°29'1312.8
2016-Nov-24 20:33N 55°30' E 014°47'1312.7
2016-Nov-24 19:33N 55°35' E 015°08'1312.4
2016-Nov-24 18:31N 55°39' E 015°30'  

Dump ship's entire track history